sensor_id;sensor_type;location;lat;lon;timestamp;temperature;humidity
6664;DHT22;58749;48.022;10.922;2022-12-29T00:01:07;5.00;99.90
6664;DHT22;58749;48.022;10.922;2022-12-29T00:03:36;5.10;99.90
6664;DHT22;58749;48.022;10.922;2022-12-29T00:06:05;5.00;99.90
6664;DHT22;58749;48.022;10.922;2022-12-29T00:08:33;5.00;99.90
6664;DHT22;58749;48.022;10.922;2022-12-29T00:11:08;5.00;99.90
6664;DHT22;58749;48.022;10.922;2022-12-29T00:13:36;5.00;99.90
6664;DHT22;58749;48.022;10.922;2022-12-29T00:16:22;5.00;99.90
6664;DHT22;58749;48.022;10.922;2022-12-29T00:18:51;5.00;99.90
6664;DHT22;58749;48.022;10.922;2022-12-29T00:21:21;5.00;99.90
6664;DHT22;58749;48.022;10.922;2022-12-29T00:24:11;5.00;99.90
6664;DHT22;58749;48.022;10.922;2022-12-29T00:27:09;5.10;99.90
6664;DHT22;58749;48.022;10.922;2022-12-29T00:29:55;5.00;99.90
6664;DHT22;58749;48.022;10.922;2022-12-29T00:32:55;5.00;99.90
6664;DHT22;58749;48.022;10.922;2022-12-29T00:35:44;5.10;99.90
6664;DHT22;58749;48.022;10.922;2022-12-29T00:38:14;5.00;99.90
6664;DHT22;58749;48.022;10.922;2022-12-29T00:41:00;5.00;99.90
6664;DHT22;58749;48.022;10.922;2022-12-29T00:43:45;5.00;99.90
6664;DHT22;58749;48.022;10.922;2022-12-29T00:46:31;5.00;99.90
6664;DHT22;58749;48.022;10.922;2022-12-29T00:48:59;5.00;99.90
6664;DHT22;58749;48.022;10.922;2022-12-29T00:51:45;5.00;99.90
6664;DHT22;58749;48.022;10.922;2022-12-29T00:54:15;5.00;99.90
6664;DHT22;58749;48.022;10.922;2022-12-29T00:56:45;5.00;99.90
6664;DHT22;58749;48.022;10.922;2022-12-29T00:59:14;5.00;99.90
6664;DHT22;58749;48.022;10.922;2022-12-29T01:01:44;5.00;99.90
6664;DHT22;58749;48.022;10.922;2022-12-29T01:04:13;5.00;99.90
6664;DHT22;58749;48.022;10.922;2022-12-29T01:06:41;5.00;99.90
6664;DHT22;58749;48.022;10.922;2022-12-29T01:09:10;5.00;99.90
6664;DHT22;58749;48.022;10.922;2022-12-29T01:11:57;5.00;99.90
6664;DHT22;58749;48.022;10.922;2022-12-29T01:14:26;5.00;99.90
6664;DHT22;58749;48.022;10.922;2022-12-29T01:16:55;5.00;99.90
6664;DHT22;58749;48.022;10.922;2022-12-29T01:19:24;5.00;99.90
6664;DHT22;58749;48.022;10.922;2022-12-29T01:21:53;5.00;99.90
6664;DHT22;58749;48.022;10.922;2022-12-29T01:24:21;5.00;99.90
6664;DHT22;58749;48.022;10.922;2022-12-29T01:26:49;5.00;99.90
6664;DHT22;58749;48.022;10.922;2022-12-29T01:29:19;5.00;99.90
6664;DHT22;58749;48.022;10.922;2022-12-29T01:31:47;5.00;99.90
6664;DHT22;58749;48.022;10.922;2022-12-29T01:34:17;5.00;99.90
6664;DHT22;58749;48.022;10.922;2022-12-29T01:36:45;5.00;99.90
6664;DHT22;58749;48.022;10.922;2022-12-29T01:39:13;5.00;99.90
6664;DHT22;58749;48.022;10.922;2022-12-29T01:41:42;5.00;99.90
6664;DHT22;58749;48.022;10.922;2022-12-29T01:44:49;5.00;99.90
6664;DHT22;58749;48.022;10.922;2022-12-29T01:47:24;4.90;99.90
6664;DHT22;58749;48.022;10.922;2022-12-29T01:49:57;5.00;99.90
6664;DHT22;58749;48.022;10.922;2022-12-29T01:52:28;4.90;99.90
6664;DHT22;58749;48.022;10.922;2022-12-29T01:54:58;5.00;99.90
6664;DHT22;58749;48.022;10.922;2022-12-29T01:57:31;5.10;99.90
6664;DHT22;58749;48.022;10.922;2022-12-29T02:00:05;5.10;99.90
6664;DHT22;58749;48.022;10.922;2022-12-29T02:02:35;5.20;99.90
6664;DHT22;58749;48.022;10.922;2022-12-29T02:05:09;5.20;99.90
6664;DHT22;58749;48.022;10.922;2022-12-29T02:07:38;5.20;99.90
6664;DHT22;58749;48.022;10.922;2022-12-29T02:10:07;5.30;99.90
6664;DHT22;58749;48.022;10.922;2022-12-29T02:12:35;5.30;99.90
6664;DHT22;58749;48.022;10.922;2022-12-29T02:15:06;5.30;99.90
6664;DHT22;58749;48.022;10.922;2022-12-29T02:17:45;5.30;99.90
6664;DHT22;58749;48.022;10.922;2022-12-29T02:20:50;5.30;99.90
6664;DHT22;58749;48.022;10.922;2022-12-29T02:23:48;5.40;99.90
6664;DHT22;58749;48.022;10.922;2022-12-29T02:29:40;6.00;99.90
6664;DHT22;58749;48.022;10.922;2022-12-29T02:32:19;6.30;99.90
6664;DHT22;58749;48.022;10.922;2022-12-29T02:34:59;6.30;99.90
6664;DHT22;58749;48.022;10.922;2022-12-29T02:37:38;6.20;99.90
6664;DHT22;58749;48.022;10.922;2022-12-29T02:40:14;6.40;99.90
6664;DHT22;58749;48.022;10.922;2022-12-29T02:42:49;6.50;99.90
6664;DHT22;58749;48.022;10.922;2022-12-29T02:45:22;6.30;99.90
6664;DHT22;58749;48.022;10.922;2022-12-29T02:48:00;6.30;99.90
6664;DHT22;58749;48.022;10.922;2022-12-29T02:50:34;6.20;99.90
6664;DHT22;58749;48.022;10.922;2022-12-29T02:53:06;6.20;99.90
6664;DHT22;58749;48.022;10.922;2022-12-29T02:55:35;6.20;99.90
6664;DHT22;58749;48.022;10.922;2022-12-29T02:58:17;6.10;99.90
6664;DHT22;58749;48.022;10.922;2022-12-29T03:00:55;6.10;99.90
6664;DHT22;58749;48.022;10.922;2022-12-29T03:03:38;6.00;99.90
6664;DHT22;58749;48.022;10.922;2022-12-29T03:06:25;6.00;99.90
6664;DHT22;58749;48.022;10.922;2022-12-29T03:09:05;5.80;99.90
6664;DHT22;58749;48.022;10.922;2022-12-29T03:11:50;5.80;99.90
6664;DHT22;58749;48.022;10.922;2022-12-29T03:14:44;5.70;99.90
6664;DHT22;58749;48.022;10.922;2022-12-29T03:17:40;5.60;99.90
6664;DHT22;58749;48.022;10.922;2022-12-29T03:20:17;5.60;99.90
6664;DHT22;58749;48.022;10.922;2022-12-29T03:22:48;5.50;99.90
6664;DHT22;58749;48.022;10.922;2022-12-29T03:25:20;5.50;99.90
6664;DHT22;58749;48.022;10.922;2022-12-29T03:27:51;5.50;99.90
6664;DHT22;58749;48.022;10.922;2022-12-29T03:30:21;5.40;99.90
6664;DHT22;58749;48.022;10.922;2022-12-29T03:32:54;5.40;99.90
6664;DHT22;58749;48.022;10.922;2022-12-29T03:35:26;5.40;99.90
6664;DHT22;58749;48.022;10.922;2022-12-29T03:37:58;5.40;99.90
6664;DHT22;58749;48.022;10.922;2022-12-29T03:40:31;5.40;99.90
6664;DHT22;58749;48.022;10.922;2022-12-29T03:43:01;5.40;99.90
6664;DHT22;58749;48.022;10.922;2022-12-29T03:45:30;5.30;99.90
6664;DHT22;58749;48.022;10.922;2022-12-29T03:47:58;5.40;99.90
6664;DHT22;58749;48.022;10.922;2022-12-29T03:50:27;5.30;99.90
6664;DHT22;58749;48.022;10.922;2022-12-29T03:52:55;5.30;99.90
6664;DHT22;58749;48.022;10.922;2022-12-29T03:55:23;5.30;99.90
6664;DHT22;58749;48.022;10.922;2022-12-29T03:57:51;5.30;99.90
6664;DHT22;58749;48.022;10.922;2022-12-29T04:00:19;5.30;99.90
6664;DHT22;58749;48.022;10.922;2022-12-29T04:02:48;5.30;99.90
6664;DHT22;58749;48.022;10.922;2022-12-29T04:05:16;5.30;99.90
6664;DHT22;58749;48.022;10.922;2022-12-29T04:07:45;5.20;99.90
6664;DHT22;58749;48.022;10.922;2022-12-29T04:10:13;5.20;99.90
6664;DHT22;58749;48.022;10.922;2022-12-29T04:12:42;5.20;99.90
6664;DHT22;58749;48.022;10.922;2022-12-29T04:15:12;5.20;99.90
6664;DHT22;58749;48.022;10.922;2022-12-29T04:17:40;5.20;99.90
6664;DHT22;58749;48.022;10.922;2022-12-29T04:20:09;5.20;99.90
6664;DHT22;58749;48.022;10.922;2022-12-29T04:23:01;5.20;99.90
6664;DHT22;58749;48.022;10.922;2022-12-29T04:25:30;5.20;99.90
6664;DHT22;58749;48.022;10.922;2022-12-29T04:27:58;5.20;99.90
6664;DHT22;58749;48.022;10.922;2022-12-29T04:30:26;5.20;99.90
6664;DHT22;58749;48.022;10.922;2022-12-29T04:32:54;5.20;99.90
6664;DHT22;58749;48.022;10.922;2022-12-29T04:35:22;5.20;99.90
6664;DHT22;58749;48.022;10.922;2022-12-29T04:37:50;5.20;99.90
6664;DHT22;58749;48.022;10.922;2022-12-29T04:40:20;5.20;99.90
6664;DHT22;58749;48.022;10.922;2022-12-29T04:42:48;5.20;99.90
6664;DHT22;58749;48.022;10.922;2022-12-29T04:45:17;5.20;99.90
6664;DHT22;58749;48.022;10.922;2022-12-29T04:47:45;5.20;99.90
6664;DHT22;58749;48.022;10.922;2022-12-29T04:50:13;5.20;99.90
6664;DHT22;58749;48.022;10.922;2022-12-29T04:52:42;5.20;99.90
6664;DHT22;58749;48.022;10.922;2022-12-29T04:55:10;5.20;99.90
6664;DHT22;58749;48.022;10.922;2022-12-29T04:57:40;5.30;99.90
6664;DHT22;58749;48.022;10.922;2022-12-29T05:00:09;5.20;99.90
6664;DHT22;58749;48.022;10.922;2022-12-29T05:02:37;5.20;99.90
6664;DHT22;58749;48.022;10.922;2022-12-29T05:05:06;5.20;99.90
6664;DHT22;58749;48.022;10.922;2022-12-29T05:07:34;5.20;99.90
6664;DHT22;58749;48.022;10.922;2022-12-29T05:10:03;5.30;99.90
6664;DHT22;58749;48.022;10.922;2022-12-29T05:12:34;5.40;99.90
6664;DHT22;58749;48.022;10.922;2022-12-29T05:15:05;5.50;99.90
6664;DHT22;58749;48.022;10.922;2022-12-29T05:17:34;5.40;99.90
6664;DHT22;58749;48.022;10.922;2022-12-29T05:20:03;5.40;99.90
6664;DHT22;58749;48.022;10.922;2022-12-29T05:22:31;5.40;99.90
6664;DHT22;58749;48.022;10.922;2022-12-29T05:24:59;5.30;99.90
6664;DHT22;58749;48.022;10.922;2022-12-29T05:27:27;5.30;99.90
6664;DHT22;58749;48.022;10.922;2022-12-29T05:29:55;5.30;99.90
6664;DHT22;58749;48.022;10.922;2022-12-29T05:32:25;5.30;99.90
6664;DHT22;58749;48.022;10.922;2022-12-29T05:34:53;5.30;99.90
6664;DHT22;58749;48.022;10.922;2022-12-29T05:37:21;5.30;99.90
6664;DHT22;58749;48.022;10.922;2022-12-29T05:39:49;5.30;99.90
6664;DHT22;58749;48.022;10.922;2022-12-29T05:42:17;5.30;99.90
6664;DHT22;58749;48.022;10.922;2022-12-29T05:44:45;5.30;99.90
6664;DHT22;58749;48.022;10.922;2022-12-29T05:47:13;5.30;99.90
6664;DHT22;58749;48.022;10.922;2022-12-29T05:49:42;5.30;99.90
6664;DHT22;58749;48.022;10.922;2022-12-29T05:52:10;5.30;99.90
6664;DHT22;58749;48.022;10.922;2022-12-29T05:54:38;5.30;99.90
6664;DHT22;58749;48.022;10.922;2022-12-29T05:57:07;5.30;99.90
6664;DHT22;58749;48.022;10.922;2022-12-29T05:59:35;5.30;99.90
6664;DHT22;58749;48.022;10.922;2022-12-29T06:02:03;5.30;99.90
6664;DHT22;58749;48.022;10.922;2022-12-29T06:04:31;5.30;99.90
6664;DHT22;58749;48.022;10.922;2022-12-29T06:07:01;5.30;99.90
6664;DHT22;58749;48.022;10.922;2022-12-29T06:09:29;5.30;99.90
6664;DHT22;58749;48.022;10.922;2022-12-29T06:11:57;5.30;99.90
6664;DHT22;58749;48.022;10.922;2022-12-29T06:14:25;5.30;99.90
6664;DHT22;58749;48.022;10.922;2022-12-29T06:16:53;5.30;99.90
6664;DHT22;58749;48.022;10.922;2022-12-29T06:19:21;5.30;99.90
6664;DHT22;58749;48.022;10.922;2022-12-29T06:21:49;5.30;99.90
6664;DHT22;58749;48.022;10.922;2022-12-29T06:24:20;5.30;99.90
6664;DHT22;58749;48.022;10.922;2022-12-29T06:26:48;5.40;99.90
6664;DHT22;58749;48.022;10.922;2022-12-29T06:29:16;5.50;99.90
6664;DHT22;58749;48.022;10.922;2022-12-29T06:31:44;5.60;99.90
6664;DHT22;58749;48.022;10.922;2022-12-29T06:34:13;5.70;99.90
6664;DHT22;58749;48.022;10.922;2022-12-29T06:36:41;5.70;99.90
6664;DHT22;58749;48.022;10.922;2022-12-29T06:39:10;5.80;99.90
6664;DHT22;58749;48.022;10.922;2022-12-29T06:41:40;5.90;99.90
6664;DHT22;58749;48.022;10.922;2022-12-29T06:44:08;6.00;99.90
6664;DHT22;58749;48.022;10.922;2022-12-29T06:46:36;6.00;99.90
6664;DHT22;58749;48.022;10.922;2022-12-29T06:49:04;6.00;99.90
6664;DHT22;58749;48.022;10.922;2022-12-29T06:51:32;6.00;99.90
6664;DHT22;58749;48.022;10.922;2022-12-29T06:54:00;6.00;99.90
6664;DHT22;58749;48.022;10.922;2022-12-29T06:56:28;6.00;99.90
6664;DHT22;58749;48.022;10.922;2022-12-29T06:58:58;6.00;99.90
6664;DHT22;58749;48.022;10.922;2022-12-29T07:01:27;6.10;99.90
6664;DHT22;58749;48.022;10.922;2022-12-29T07:03:56;6.20;99.90
6664;DHT22;58749;48.022;10.922;2022-12-29T07:06:24;6.20;99.90
6664;DHT22;58749;48.022;10.922;2022-12-29T07:08:52;6.20;99.90
6664;DHT22;58749;48.022;10.922;2022-12-29T07:11:21;6.20;99.90
6664;DHT22;58749;48.022;10.922;2022-12-29T07:13:50;6.30;99.90
6664;DHT22;58749;48.022;10.922;2022-12-29T07:16:19;6.40;99.90
6664;DHT22;58749;48.022;10.922;2022-12-29T07:18:47;6.50;99.90
6664;DHT22;58749;48.022;10.922;2022-12-29T07:21:16;6.60;99.90
6664;DHT22;58749;48.022;10.922;2022-12-29T07:23:44;6.50;99.90
6664;DHT22;58749;48.022;10.922;2022-12-29T07:26:13;6.40;99.90
6664;DHT22;58749;48.022;10.922;2022-12-29T07:28:42;6.60;99.90
6664;DHT22;58749;48.022;10.922;2022-12-29T07:31:14;6.50;99.90
6664;DHT22;58749;48.022;10.922;2022-12-29T07:34:03;6.60;99.90
6664;DHT22;58749;48.022;10.922;2022-12-29T07:36:51;6.60;99.90
6664;DHT22;58749;48.022;10.922;2022-12-29T07:39:40;6.50;99.90
6664;DHT22;58749;48.022;10.922;2022-12-29T07:42:08;6.40;99.90
6664;DHT22;58749;48.022;10.922;2022-12-29T07:44:36;6.30;99.90
6664;DHT22;58749;48.022;10.922;2022-12-29T07:47:04;6.40;99.90
6664;DHT22;58749;48.022;10.922;2022-12-29T07:49:34;6.50;99.90
6664;DHT22;58749;48.022;10.922;2022-12-29T07:52:02;6.60;99.90
6664;DHT22;58749;48.022;10.922;2022-12-29T07:54:30;6.60;99.90
6664;DHT22;58749;48.022;10.922;2022-12-29T07:56:58;6.60;99.90
6664;DHT22;58749;48.022;10.922;2022-12-29T07:59:27;6.50;99.90
6664;DHT22;58749;48.022;10.922;2022-12-29T08:01:55;6.50;99.90
6664;DHT22;58749;48.022;10.922;2022-12-29T08:04:24;6.60;99.90
6664;DHT22;58749;48.022;10.922;2022-12-29T08:06:53;6.60;99.90
6664;DHT22;58749;48.022;10.922;2022-12-29T08:09:21;6.60;99.90
6664;DHT22;58749;48.022;10.922;2022-12-29T08:11:50;6.60;99.90
6664;DHT22;58749;48.022;10.922;2022-12-29T08:14:18;6.70;99.90
6664;DHT22;58749;48.022;10.922;2022-12-29T08:16:46;6.70;99.90
6664;DHT22;58749;48.022;10.922;2022-12-29T08:19:14;6.80;99.90
6664;DHT22;58749;48.022;10.922;2022-12-29T08:21:43;6.90;99.90
6664;DHT22;58749;48.022;10.922;2022-12-29T08:24:12;6.90;99.90
6664;DHT22;58749;48.022;10.922;2022-12-29T08:26:40;7.00;99.90
6664;DHT22;58749;48.022;10.922;2022-12-29T08:29:08;7.00;99.90
6664;DHT22;58749;48.022;10.922;2022-12-29T08:31:36;7.00;99.90
6664;DHT22;58749;48.022;10.922;2022-12-29T08:34:05;7.00;99.90
6664;DHT22;58749;48.022;10.922;2022-12-29T08:36:33;7.10;99.90
6664;DHT22;58749;48.022;10.922;2022-12-29T08:39:01;7.20;99.90
6664;DHT22;58749;48.022;10.922;2022-12-29T08:41:30;7.20;99.90
6664;DHT22;58749;48.022;10.922;2022-12-29T08:43:59;7.20;99.90
6664;DHT22;58749;48.022;10.922;2022-12-29T08:46:27;7.30;99.90
6664;DHT22;58749;48.022;10.922;2022-12-29T08:48:55;7.30;99.90
6664;DHT22;58749;48.022;10.922;2022-12-29T08:51:23;7.30;99.90
6664;DHT22;58749;48.022;10.922;2022-12-29T08:53:51;7.40;99.90
6664;DHT22;58749;48.022;10.922;2022-12-29T08:56:19;7.50;99.90
6664;DHT22;58749;48.022;10.922;2022-12-29T08:58:49;7.50;99.90
6664;DHT22;58749;48.022;10.922;2022-12-29T09:01:17;7.60;99.90
6664;DHT22;58749;48.022;10.922;2022-12-29T09:03:46;7.60;99.90
6664;DHT22;58749;48.022;10.922;2022-12-29T09:06:34;7.90;99.90
6664;DHT22;58749;48.022;10.922;2022-12-29T09:09:06;7.90;99.90
6664;DHT22;58749;48.022;10.922;2022-12-29T09:11:34;8.00;99.90
6664;DHT22;58749;48.022;10.922;2022-12-29T09:14:04;8.20;99.90
6664;DHT22;58749;48.022;10.922;2022-12-29T09:16:32;8.00;99.90
6664;DHT22;58749;48.022;10.922;2022-12-29T09:19:01;8.00;99.90
6664;DHT22;58749;48.022;10.922;2022-12-29T09:21:29;7.90;99.90
6664;DHT22;58749;48.022;10.922;2022-12-29T09:23:58;8.00;99.90
6664;DHT22;58749;48.022;10.922;2022-12-29T09:26:26;8.10;99.90
6664;DHT22;58749;48.022;10.922;2022-12-29T09:28:54;7.90;99.90
6664;DHT22;58749;48.022;10.922;2022-12-29T09:31:23;7.80;99.90
6664;DHT22;58749;48.022;10.922;2022-12-29T09:33:52;7.80;99.90
6664;DHT22;58749;48.022;10.922;2022-12-29T09:36:20;7.70;99.90
6664;DHT22;58749;48.022;10.922;2022-12-29T09:38:48;7.70;99.90
6664;DHT22;58749;48.022;10.922;2022-12-29T09:41:19;7.70;99.90
6664;DHT22;58749;48.022;10.922;2022-12-29T09:43:59;7.80;99.90
6664;DHT22;58749;48.022;10.922;2022-12-29T09:46:35;7.90;99.90
6664;DHT22;58749;48.022;10.922;2022-12-29T09:49:16;8.00;99.90
6664;DHT22;58749;48.022;10.922;2022-12-29T09:51:49;8.10;99.90
6664;DHT22;58749;48.022;10.922;2022-12-29T09:54:39;8.20;99.90
6664;DHT22;58749;48.022;10.922;2022-12-29T09:57:16;8.30;99.90
6664;DHT22;58749;48.022;10.922;2022-12-29T09:59:46;8.40;99.90
6664;DHT22;58749;48.022;10.922;2022-12-29T10:02:32;8.40;99.90
6664;DHT22;58749;48.022;10.922;2022-12-29T10:05:03;8.50;99.70
6664;DHT22;58749;48.022;10.922;2022-12-29T10:11:20;8.70;99.40
6664;DHT22;58749;48.022;10.922;2022-12-29T10:14:04;8.70;99.50
6664;DHT22;58749;48.022;10.922;2022-12-29T10:16:47;8.80;99.90
6664;DHT22;58749;48.022;10.922;2022-12-29T10:19:33;8.80;99.90
6664;DHT22;58749;48.022;10.922;2022-12-29T10:22:13;8.80;99.90
6664;DHT22;58749;48.022;10.922;2022-12-29T10:24:46;8.90;99.70
6664;DHT22;58749;48.022;10.922;2022-12-29T10:27:16;9.00;99.10
6664;DHT22;58749;48.022;10.922;2022-12-29T10:29:48;9.00;99.40
6664;DHT22;58749;48.022;10.922;2022-12-29T10:32:24;9.10;97.80
6664;DHT22;58749;48.022;10.922;2022-12-29T10:34:58;9.20;98.50
6664;DHT22;58749;48.022;10.922;2022-12-29T10:37:32;9.30;98.70
6664;DHT22;58749;48.022;10.922;2022-12-29T10:40:14;9.40;96.80
6664;DHT22;58749;48.022;10.922;2022-12-29T10:42:46;9.50;97.60
6664;DHT22;58749;48.022;10.922;2022-12-29T10:45:15;9.50;97.50
6664;DHT22;58749;48.022;10.922;2022-12-29T10:47:52;9.60;97.40
6664;DHT22;58749;48.022;10.922;2022-12-29T10:50:23;9.80;96.30
6664;DHT22;58749;48.022;10.922;2022-12-29T10:52:52;9.80;98.30
6664;DHT22;58749;48.022;10.922;2022-12-29T10:55:25;9.70;97.10
6664;DHT22;58749;48.022;10.922;2022-12-29T10:57:56;9.70;97.60
6664;DHT22;58749;48.022;10.922;2022-12-29T11:00:27;9.70;98.20
6664;DHT22;58749;48.022;10.922;2022-12-29T11:03:22;9.70;97.60
6664;DHT22;58749;48.022;10.922;2022-12-29T11:06:01;9.80;97.10
6664;DHT22;58749;48.022;10.922;2022-12-29T11:08:36;9.80;95.80
6664;DHT22;58749;48.022;10.922;2022-12-29T11:11:07;9.80;97.30
6664;DHT22;58749;48.022;10.922;2022-12-29T11:13:47;9.70;96.90
6664;DHT22;58749;48.022;10.922;2022-12-29T11:16:27;9.70;95.80
6664;DHT22;58749;48.022;10.922;2022-12-29T11:18:57;9.70;96.30
6664;DHT22;58749;48.022;10.922;2022-12-29T11:21:31;9.80;96.10
6664;DHT22;58749;48.022;10.922;2022-12-29T11:24:02;9.70;96.70
6664;DHT22;58749;48.022;10.922;2022-12-29T11:26:31;9.80;96.30
6664;DHT22;58749;48.022;10.922;2022-12-29T11:29:22;9.80;97.10
6664;DHT22;58749;48.022;10.922;2022-12-29T11:31:52;9.90;96.50
6664;DHT22;58749;48.022;10.922;2022-12-29T11:34:24;10.00;96.90
6664;DHT22;58749;48.022;10.922;2022-12-29T11:37:00;10.00;97.20
6664;DHT22;58749;48.022;10.922;2022-12-29T11:39:32;10.00;97.40
6664;DHT22;58749;48.022;10.922;2022-12-29T11:42:01;10.00;96.90
6664;DHT22;58749;48.022;10.922;2022-12-29T11:44:37;10.00;97.30
6664;DHT22;58749;48.022;10.922;2022-12-29T11:47:08;10.00;96.70
6664;DHT22;58749;48.022;10.922;2022-12-29T11:49:38;10.10;97.20
6664;DHT22;58749;48.022;10.922;2022-12-29T11:52:08;10.20;96.80
6664;DHT22;58749;48.022;10.922;2022-12-29T11:54:37;10.20;97.10
6664;DHT22;58749;48.022;10.922;2022-12-29T11:57:10;10.30;97.30
6664;DHT22;58749;48.022;10.922;2022-12-29T11:59:42;10.30;98.30
6664;DHT22;58749;48.022;10.922;2022-12-29T12:02:41;10.20;98.90
6664;DHT22;58749;48.022;10.922;2022-12-29T12:05:32;10.30;98.30
6664;DHT22;58749;48.022;10.922;2022-12-29T12:08:10;10.40;98.30
6664;DHT22;58749;48.022;10.922;2022-12-29T12:10:48;10.50;98.00
6664;DHT22;58749;48.022;10.922;2022-12-29T12:13:23;10.70;98.60
6664;DHT22;58749;48.022;10.922;2022-12-29T12:15:58;10.60;98.70
6664;DHT22;58749;48.022;10.922;2022-12-29T12:18:34;10.60;99.30
6664;DHT22;58749;48.022;10.922;2022-12-29T12:21:10;10.50;99.70
6664;DHT22;58749;48.022;10.922;2022-12-29T12:23:56;10.40;99.90
6664;DHT22;58749;48.022;10.922;2022-12-29T12:26:32;10.30;99.90
6664;DHT22;58749;48.022;10.922;2022-12-29T12:29:09;10.20;99.90
6664;DHT22;58749;48.022;10.922;2022-12-29T12:31:44;10.10;99.90
6664;DHT22;58749;48.022;10.922;2022-12-29T12:34:23;10.10;99.90
6664;DHT22;58749;48.022;10.922;2022-12-29T12:37:10;10.10;99.90
6664;DHT22;58749;48.022;10.922;2022-12-29T12:39:49;10.10;99.90
6664;DHT22;58749;48.022;10.922;2022-12-29T12:42:32;10.10;99.90
6664;DHT22;58749;48.022;10.922;2022-12-29T12:45:24;10.00;99.90
6664;DHT22;58749;48.022;10.922;2022-12-29T12:48:04;10.00;99.90
6664;DHT22;58749;48.022;10.922;2022-12-29T12:50:45;9.90;99.90
6664;DHT22;58749;48.022;10.922;2022-12-29T12:59:18;9.90;99.90
6664;DHT22;58749;48.022;10.922;2022-12-29T13:01:57;10.00;99.90
6664;DHT22;58749;48.022;10.922;2022-12-29T13:04:38;9.90;99.90
6664;DHT22;58749;48.022;10.922;2022-12-29T13:07:20;9.80;99.90
6664;DHT22;58749;48.022;10.922;2022-12-29T13:10:00;9.80;99.90
6664;DHT22;58749;48.022;10.922;2022-12-29T13:12:38;9.70;99.90
6664;DHT22;58749;48.022;10.922;2022-12-29T13:15:22;9.70;99.90
6664;DHT22;58749;48.022;10.922;2022-12-29T13:17:59;9.70;99.90
6664;DHT22;58749;48.022;10.922;2022-12-29T13:20:34;9.80;99.90
6664;DHT22;58749;48.022;10.922;2022-12-29T13:23:08;9.90;99.90
6664;DHT22;58749;48.022;10.922;2022-12-29T13:25:46;9.80;99.90
6664;DHT22;58749;48.022;10.922;2022-12-29T13:28:20;9.70;99.90
6664;DHT22;58749;48.022;10.922;2022-12-29T13:30:55;9.60;99.90
6664;DHT22;58749;48.022;10.922;2022-12-29T13:33:29;9.50;99.90
6664;DHT22;58749;48.022;10.922;2022-12-29T13:36:04;9.50;99.90
6664;DHT22;58749;48.022;10.922;2022-12-29T13:38:37;9.50;99.90
6664;DHT22;58749;48.022;10.922;2022-12-29T13:41:09;9.60;99.90
6664;DHT22;58749;48.022;10.922;2022-12-29T13:43:42;9.60;99.90
6664;DHT22;58749;48.022;10.922;2022-12-29T13:46:15;9.60;99.90
6664;DHT22;58749;48.022;10.922;2022-12-29T13:48:50;9.50;99.90
6664;DHT22;58749;48.022;10.922;2022-12-29T13:51:21;9.40;99.90
6664;DHT22;58749;48.022;10.922;2022-12-29T13:54:03;9.40;99.90
6664;DHT22;58749;48.022;10.922;2022-12-29T13:56:37;9.30;99.90
6664;DHT22;58749;48.022;10.922;2022-12-29T13:59:16;9.30;99.90
6664;DHT22;58749;48.022;10.922;2022-12-29T14:01:52;9.30;99.90
6664;DHT22;58749;48.022;10.922;2022-12-29T14:04:23;9.10;99.90
6664;DHT22;58749;48.022;10.922;2022-12-29T14:07:00;9.10;99.90
6664;DHT22;58749;48.022;10.922;2022-12-29T14:09:45;9.10;99.90
6664;DHT22;58749;48.022;10.922;2022-12-29T14:12:36;9.00;99.90
6664;DHT22;58749;48.022;10.922;2022-12-29T14:15:22;9.00;99.90
6664;DHT22;58749;48.022;10.922;2022-12-29T14:18:04;9.00;99.90
6664;DHT22;58749;48.022;10.922;2022-12-29T14:20:34;9.00;99.90
6664;DHT22;58749;48.022;10.922;2022-12-29T14:23:16;9.20;99.90
6664;DHT22;58749;48.022;10.922;2022-12-29T14:26:00;9.10;99.90
6664;DHT22;58749;48.022;10.922;2022-12-29T14:28:30;9.10;99.90
6664;DHT22;58749;48.022;10.922;2022-12-29T14:31:00;9.10;99.90
6664;DHT22;58749;48.022;10.922;2022-12-29T14:33:30;9.00;99.90
6664;DHT22;58749;48.022;10.922;2022-12-29T14:36:19;9.00;99.90
6664;DHT22;58749;48.022;10.922;2022-12-29T14:38:48;9.00;99.90
6664;DHT22;58749;48.022;10.922;2022-12-29T14:41:29;9.00;99.90
6664;DHT22;58749;48.022;10.922;2022-12-29T14:44:00;9.00;99.90
6664;DHT22;58749;48.022;10.922;2022-12-29T14:46:54;9.00;99.90
6664;DHT22;58749;48.022;10.922;2022-12-29T14:49:24;9.00;99.90
6664;DHT22;58749;48.022;10.922;2022-12-29T14:52:03;8.90;99.90
6664;DHT22;58749;48.022;10.922;2022-12-29T14:54:52;8.80;99.90
6664;DHT22;58749;48.022;10.922;2022-12-29T14:57:25;8.70;99.90
6664;DHT22;58749;48.022;10.922;2022-12-29T15:00:04;8.60;99.90
6664;DHT22;58749;48.022;10.922;2022-12-29T15:02:40;8.60;99.90
6664;DHT22;58749;48.022;10.922;2022-12-29T15:05:30;8.50;99.90
6664;DHT22;58749;48.022;10.922;2022-12-29T15:07:59;8.60;99.90
6664;DHT22;58749;48.022;10.922;2022-12-29T15:10:35;8.50;99.90
6664;DHT22;58749;48.022;10.922;2022-12-29T15:13:13;8.50;99.90
6664;DHT22;58749;48.022;10.922;2022-12-29T15:15:42;8.40;99.90
6664;DHT22;58749;48.022;10.922;2022-12-29T15:18:22;8.30;99.90
6664;DHT22;58749;48.022;10.922;2022-12-29T15:20:53;8.30;99.90
6664;DHT22;58749;48.022;10.922;2022-12-29T15:23:31;8.40;99.90
6664;DHT22;58749;48.022;10.922;2022-12-29T15:26:02;8.40;99.90
6664;DHT22;58749;48.022;10.922;2022-12-29T15:28:37;8.30;99.90
6664;DHT22;58749;48.022;10.922;2022-12-29T15:31:11;8.30;99.90
6664;DHT22;58749;48.022;10.922;2022-12-29T15:33:42;8.40;99.90
6664;DHT22;58749;48.022;10.922;2022-12-29T15:36:13;8.40;99.90
6664;DHT22;58749;48.022;10.922;2022-12-29T15:38:41;8.40;99.90
6664;DHT22;58749;48.022;10.922;2022-12-29T15:41:24;8.50;99.90
6664;DHT22;58749;48.022;10.922;2022-12-29T15:44:09;8.40;99.90
6664;DHT22;58749;48.022;10.922;2022-12-29T15:46:40;8.40;99.90
6664;DHT22;58749;48.022;10.922;2022-12-29T15:49:13;8.40;99.90
6664;DHT22;58749;48.022;10.922;2022-12-29T15:52:05;8.40;99.90
6664;DHT22;58749;48.022;10.922;2022-12-29T15:54:34;8.30;99.90
6664;DHT22;58749;48.022;10.922;2022-12-29T15:57:02;8.30;99.90
6664;DHT22;58749;48.022;10.922;2022-12-29T15:59:49;8.30;99.90
6664;DHT22;58749;48.022;10.922;2022-12-29T16:02:18;8.20;99.90
6664;DHT22;58749;48.022;10.922;2022-12-29T16:04:48;8.40;99.90
6664;DHT22;58749;48.022;10.922;2022-12-29T16:07:37;8.40;99.90
6664;DHT22;58749;48.022;10.922;2022-12-29T16:10:24;8.40;99.90
6664;DHT22;58749;48.022;10.922;2022-12-29T16:12:53;8.30;99.90
6664;DHT22;58749;48.022;10.922;2022-12-29T16:15:21;8.30;99.90
6664;DHT22;58749;48.022;10.922;2022-12-29T16:17:50;8.20;99.90
6664;DHT22;58749;48.022;10.922;2022-12-29T16:20:23;8.30;99.90
6664;DHT22;58749;48.022;10.922;2022-12-29T16:22:54;8.30;99.90
6664;DHT22;58749;48.022;10.922;2022-12-29T16:25:25;8.30;99.90
6664;DHT22;58749;48.022;10.922;2022-12-29T16:27:55;8.20;99.90
6664;DHT22;58749;48.022;10.922;2022-12-29T16:30:25;8.20;99.90
6664;DHT22;58749;48.022;10.922;2022-12-29T16:33:01;8.20;99.90
6664;DHT22;58749;48.022;10.922;2022-12-29T16:35:39;8.20;99.90
6664;DHT22;58749;48.022;10.922;2022-12-29T16:38:13;8.10;99.90